Terminal Aerodrome Forecast
Issued by NWS Charleston, WV

Current Version | Previous Version | Text Only | Print | Product List | Glossary Off
Versions: 1 2 3 4 5 6 7 8 9 10 11 12 13 14 15 16 17 18 19 20 21 22 23 24 25 26 27 28

000
FTUS41 KRLX 022344
TAFBKW
TAF
KBKW 022344Z 0300/0324 12003KT P6SM SCT008 OVC025
     FM030200 12002KT P6SM VCSH BKN008 OVC015
     FM030500 VRB02KT 5SM BR VCSH OVC003
     FM030600 00000KT 2SM BR OVC003
     FM031400 00000KT 4SM SHRA BR VCTS OVC008CB
     FM031800 VRB03KT 2SM SHRA BR VCTS OVC006CB=

USA.gov is the U.S. government's official web portal to all federal, state and local government web resources and services.